sensor_id;sensor_type;location;lat;lon;timestamp;P1;durP1;ratioP1;P2;durP2;ratioP2
15876;SDS011;8037;51.666;7.834;2023-05-10T00:00:42;7.30;;;5.60;;
15876;SDS011;8037;51.666;7.834;2023-05-10T00:03:08;5.97;;;4.90;;
15876;SDS011;8037;51.666;7.834;2023-05-10T00:05:34;5.50;;;4.73;;
15876;SDS011;8037;51.666;7.834;2023-05-10T00:08:00;6.63;;;3.70;;
15876;SDS011;8037;51.666;7.834;2023-05-10T00:10:26;4.33;;;4.03;;
15876;SDS011;8037;51.666;7.834;2023-05-10T00:12:52;6.60;;;3.73;;
15876;SDS011;8037;51.666;7.834;2023-05-10T00:15:18;4.10;;;3.40;;
15876;SDS011;8037;51.666;7.834;2023-05-10T00:17:44;5.07;;;3.70;;
15876;SDS011;8037;51.666;7.834;2023-05-10T00:20:10;3.90;;;3.33;;
15876;SDS011;8037;51.666;7.834;2023-05-10T00:22:36;3.33;;;2.70;;
15876;SDS011;8037;51.666;7.834;2023-05-10T00:25:02;2.50;;;2.30;;
15876;SDS011;8037;51.666;7.834;2023-05-10T00:27:28;2.33;;;2.13;;
15876;SDS011;8037;51.666;7.834;2023-05-10T00:29:54;2.03;;;1.93;;
15876;SDS011;8037;51.666;7.834;2023-05-10T00:32:20;2.60;;;2.40;;
15876;SDS011;8037;51.666;7.834;2023-05-10T00:34:46;1.90;;;1.80;;
15876;SDS011;8037;51.666;7.834;2023-05-10T00:37:12;3.30;;;2.33;;
15876;SDS011;8037;51.666;7.834;2023-05-10T00:39:38;2.30;;;1.87;;
15876;SDS011;8037;51.666;7.834;2023-05-10T00:42:04;2.17;;;2.00;;
15876;SDS011;8037;51.666;7.834;2023-05-10T00:44:30;3.60;;;2.97;;
15876;SDS011;8037;51.666;7.834;2023-05-10T00:46:56;2.70;;;2.10;;
15876;SDS011;8037;51.666;7.834;2023-05-10T00:49:22;3.53;;;2.63;;
15876;SDS011;8037;51.666;7.834;2023-05-10T00:51:48;2.67;;;2.47;;
15876;SDS011;8037;51.666;7.834;2023-05-10T00:54:14;2.60;;;2.40;;
15876;SDS011;8037;51.666;7.834;2023-05-10T00:56:40;5.03;;;2.67;;
15876;SDS011;8037;51.666;7.834;2023-05-10T00:59:09;6.63;;;3.03;;
15876;SDS011;8037;51.666;7.834;2023-05-10T01:01:35;2.00;;;1.80;;
15876;SDS011;8037;51.666;7.834;2023-05-10T01:04:01;2.00;;;1.90;;
15876;SDS011;8037;51.666;7.834;2023-05-10T01:06:28;2.70;;;1.97;;
15876;SDS011;8037;51.666;7.834;2023-05-10T01:08:54;2.33;;;2.10;;
15876;SDS011;8037;51.666;7.834;2023-05-10T01:11:21;2.43;;;2.20;;
15876;SDS011;8037;51.666;7.834;2023-05-10T01:13:47;2.50;;;1.90;;
15876;SDS011;8037;51.666;7.834;2023-05-10T01:16:16;2.13;;;2.00;;
15876;SDS011;8037;51.666;7.834;2023-05-10T01:18:42;4.30;;;2.33;;
15876;SDS011;8037;51.666;7.834;2023-05-10T01:29:04;2.20;;;2.00;;
15876;SDS011;8037;51.666;7.834;2023-05-10T01:34:25;2.83;;;2.73;;
15876;SDS011;8037;51.666;7.834;2023-05-10T01:37:13;1.60;;;1.50;;
15876;SDS011;8037;51.666;7.834;2023-05-10T01:42:10;2.83;;;2.37;;
15876;SDS011;8037;51.666;7.834;2023-05-10T01:44:42;1.80;;;1.70;;
15876;SDS011;8037;51.666;7.834;2023-05-10T01:47:12;1.97;;;1.87;;
15876;SDS011;8037;51.666;7.834;2023-05-10T01:50:01;1.80;;;1.70;;
15876;SDS011;8037;51.666;7.834;2023-05-10T01:52:26;1.57;;;1.30;;
15876;SDS011;8037;51.666;7.834;2023-05-10T01:55:00;1.13;;;1.03;;
15876;SDS011;8037;51.666;7.834;2023-05-10T01:57:28;2.13;;;1.57;;
15876;SDS011;8037;51.666;7.834;2023-05-10T01:59:58;1.17;;;1.17;;
15876;SDS011;8037;51.666;7.834;2023-05-10T02:02:25;1.80;;;1.30;;
15876;SDS011;8037;51.666;7.834;2023-05-10T02:04:53;3.23;;;1.40;;
15876;SDS011;8037;51.666;7.834;2023-05-10T02:07:20;1.80;;;1.60;;
15876;SDS011;8037;51.666;7.834;2023-05-10T02:09:47;1.50;;;1.40;;
15876;SDS011;8037;51.666;7.834;2023-05-10T02:12:13;2.70;;;1.47;;
15876;SDS011;8037;51.666;7.834;2023-05-10T02:14:40;1.73;;;1.53;;
15876;SDS011;8037;51.666;7.834;2023-05-10T02:17:07;1.73;;;1.63;;
15876;SDS011;8037;51.666;7.834;2023-05-10T02:19:33;1.17;;;1.17;;
15876;SDS011;8037;51.666;7.834;2023-05-10T02:22:00;2.10;;;2.00;;
15876;SDS011;8037;51.666;7.834;2023-05-10T02:24:26;2.60;;;1.57;;
15876;SDS011;8037;51.666;7.834;2023-05-10T02:26:56;3.00;;;1.60;;
15876;SDS011;8037;51.666;7.834;2023-05-10T02:29:23;2.43;;;1.40;;
15876;SDS011;8037;51.666;7.834;2023-05-10T02:31:51;1.83;;;1.60;;
15876;SDS011;8037;51.666;7.834;2023-05-10T02:34:17;2.30;;;2.10;;
15876;SDS011;8037;51.666;7.834;2023-05-10T02:36:43;2.37;;;1.97;;
15876;SDS011;8037;51.666;7.834;2023-05-10T02:39:09;2.20;;;2.10;;
15876;SDS011;8037;51.666;7.834;2023-05-10T02:41:38;2.33;;;2.13;;
15876;SDS011;8037;51.666;7.834;2023-05-10T02:44:06;1.77;;;1.67;;
15876;SDS011;8037;51.666;7.834;2023-05-10T02:46:33;1.97;;;1.87;;
15876;SDS011;8037;51.666;7.834;2023-05-10T02:49:00;2.00;;;1.90;;
15876;SDS011;8037;51.666;7.834;2023-05-10T02:51:27;2.30;;;1.80;;
15876;SDS011;8037;51.666;7.834;2023-05-10T02:53:57;2.07;;;1.97;;
15876;SDS011;8037;51.666;7.834;2023-05-10T02:56:28;1.90;;;1.80;;
15876;SDS011;8037;51.666;7.834;2023-05-10T02:58:55;2.60;;;1.70;;
15876;SDS011;8037;51.666;7.834;2023-05-10T03:01:20;3.13;;;2.20;;
15876;SDS011;8037;51.666;7.834;2023-05-10T03:03:46;12.03;;;2.47;;
15876;SDS011;8037;51.666;7.834;2023-05-10T03:06:12;2.60;;;2.40;;
15876;SDS011;8037;51.666;7.834;2023-05-10T03:08:38;2.43;;;1.50;;
15876;SDS011;8037;51.666;7.834;2023-05-10T03:11:16;3.57;;;1.43;;
15876;SDS011;8037;51.666;7.834;2023-05-10T03:16:27;1.67;;;1.50;;
15876;SDS011;8037;51.666;7.834;2023-05-10T03:18:56;1.93;;;1.83;;
15876;SDS011;8037;51.666;7.834;2023-05-10T03:21:25;1.60;;;1.40;;
15876;SDS011;8037;51.666;7.834;2023-05-10T03:24:04;2.33;;;1.60;;
15876;SDS011;8037;51.666;7.834;2023-05-10T03:26:31;1.43;;;1.43;;
15876;SDS011;8037;51.666;7.834;2023-05-10T03:28:57;1.30;;;1.00;;
15876;SDS011;8037;51.666;7.834;2023-05-10T03:31:24;1.77;;;1.30;;
15876;SDS011;8037;51.666;7.834;2023-05-10T03:33:51;0.53;;;0.50;;
15876;SDS011;8037;51.666;7.834;2023-05-10T03:36:17;1.40;;;1.30;;
15876;SDS011;8037;51.666;7.834;2023-05-10T03:38:44;3.10;;;1.17;;
15876;SDS011;8037;51.666;7.834;2023-05-10T03:41:10;0.73;;;0.73;;
15876;SDS011;8037;51.666;7.834;2023-05-10T03:43:36;2.80;;;1.07;;
15876;SDS011;8037;51.666;7.834;2023-05-10T03:46:02;0.40;;;0.40;;
15876;SDS011;8037;51.666;7.834;2023-05-10T03:48:29;2.60;;;0.60;;
15876;SDS011;8037;51.666;7.834;2023-05-10T03:50:55;4.57;;;1.00;;
15876;SDS011;8037;51.666;7.834;2023-05-10T03:53:21;0.87;;;0.80;;
15876;SDS011;8037;51.666;7.834;2023-05-10T03:55:48;1.63;;;0.80;;
15876;SDS011;8037;51.666;7.834;2023-05-10T03:58:14;1.20;;;0.73;;
15876;SDS011;8037;51.666;7.834;2023-05-10T04:00:40;0.93;;;0.60;;
15876;SDS011;8037;51.666;7.834;2023-05-10T04:03:10;0.83;;;0.77;;
15876;SDS011;8037;51.666;7.834;2023-05-10T04:05:36;1.10;;;0.70;;
15876;SDS011;8037;51.666;7.834;2023-05-10T04:08:02;1.00;;;1.00;;
15876;SDS011;8037;51.666;7.834;2023-05-10T04:10:28;0.70;;;0.70;;
15876;SDS011;8037;51.666;7.834;2023-05-10T04:12:54;0.77;;;0.77;;
15876;SDS011;8037;51.666;7.834;2023-05-10T04:15:20;2.53;;;1.03;;
15876;SDS011;8037;51.666;7.834;2023-05-10T04:17:46;3.03;;;0.80;;
15876;SDS011;8037;51.666;7.834;2023-05-10T04:20:12;1.13;;;1.00;;
15876;SDS011;8037;51.666;7.834;2023-05-10T04:22:38;1.13;;;0.77;;
15876;SDS011;8037;51.666;7.834;2023-05-10T04:25:05;2.97;;;0.83;;
15876;SDS011;8037;51.666;7.834;2023-05-10T04:27:32;0.80;;;0.70;;
15876;SDS011;8037;51.666;7.834;2023-05-10T04:29:58;1.27;;;1.17;;
15876;SDS011;8037;51.666;7.834;2023-05-10T04:32:24;0.60;;;0.60;;
15876;SDS011;8037;51.666;7.834;2023-05-10T04:34:50;1.30;;;0.80;;
15876;SDS011;8037;51.666;7.834;2023-05-10T04:37:16;1.23;;;0.90;;
15876;SDS011;8037;51.666;7.834;2023-05-10T04:39:42;0.70;;;0.70;;
15876;SDS011;8037;51.666;7.834;2023-05-10T04:42:08;0.73;;;0.60;;
15876;SDS011;8037;51.666;7.834;2023-05-10T04:44:34;0.60;;;0.50;;
15876;SDS011;8037;51.666;7.834;2023-05-10T04:47:01;0.53;;;0.53;;
15876;SDS011;8037;51.666;7.834;2023-05-10T04:49:28;2.10;;;0.70;;
15876;SDS011;8037;51.666;7.834;2023-05-10T04:51:54;7.20;;;0.80;;
15876;SDS011;8037;51.666;7.834;2023-05-10T04:54:20;0.93;;;0.93;;
15876;SDS011;8037;51.666;7.834;2023-05-10T04:56:46;0.80;;;0.80;;
15876;SDS011;8037;51.666;7.834;2023-05-10T04:59:12;0.77;;;0.77;;
15876;SDS011;8037;51.666;7.834;2023-05-10T05:01:39;1.07;;;0.90;;
15876;SDS011;8037;51.666;7.834;2023-05-10T05:04:05;3.70;;;1.27;;
15876;SDS011;8037;51.666;7.834;2023-05-10T05:06:31;1.20;;;1.00;;
15876;SDS011;8037;51.666;7.834;2023-05-10T05:08:57;2.20;;;1.00;;
15876;SDS011;8037;51.666;7.834;2023-05-10T05:11:23;0.93;;;0.83;;
15876;SDS011;8037;51.666;7.834;2023-05-10T05:13:50;9.37;;;1.17;;
15876;SDS011;8037;51.666;7.834;2023-05-10T05:16:16;1.23;;;1.07;;
15876;SDS011;8037;51.666;7.834;2023-05-10T05:18:42;1.20;;;0.90;;
15876;SDS011;8037;51.666;7.834;2023-05-10T05:21:15;2.00;;;1.40;;
15876;SDS011;8037;51.666;7.834;2023-05-10T05:23:41;1.20;;;1.10;;
15876;SDS011;8037;51.666;7.834;2023-05-10T05:26:07;4.60;;;2.07;;
15876;SDS011;8037;51.666;7.834;2023-05-10T05:28:33;2.60;;;1.70;;
15876;SDS011;8037;51.666;7.834;2023-05-10T05:31:02;2.70;;;2.50;;
15876;SDS011;8037;51.666;7.834;2023-05-10T05:33:28;12.27;;;2.93;;
15876;SDS011;8037;51.666;7.834;2023-05-10T05:35:54;3.13;;;2.87;;
15876;SDS011;8037;51.666;7.834;2023-05-10T05:38:20;10.83;;;3.60;;
15876;SDS011;8037;51.666;7.834;2023-05-10T05:40:46;3.90;;;3.60;;
15876;SDS011;8037;51.666;7.834;2023-05-10T05:43:12;5.43;;;3.57;;
15876;SDS011;8037;51.666;7.834;2023-05-10T05:45:38;5.60;;;3.97;;
15876;SDS011;8037;51.666;7.834;2023-05-10T05:48:04;6.17;;;3.87;;
15876;SDS011;8037;51.666;7.834;2023-05-10T05:50:30;6.17;;;4.53;;
15876;SDS011;8037;51.666;7.834;2023-05-10T05:52:56;4.20;;;3.80;;
15876;SDS011;8037;51.666;7.834;2023-05-10T05:55:22;7.30;;;4.00;;
15876;SDS011;8037;51.666;7.834;2023-05-10T05:57:49;10.07;;;5.00;;
15876;SDS011;8037;51.666;7.834;2023-05-10T06:00:15;4.67;;;4.30;;
15876;SDS011;8037;51.666;7.834;2023-05-10T06:02:41;7.33;;;5.40;;
15876;SDS011;8037;51.666;7.834;2023-05-10T06:05:07;7.20;;;5.20;;
15876;SDS011;8037;51.666;7.834;2023-05-10T06:07:33;7.00;;;5.40;;
15876;SDS011;8037;51.666;7.834;2023-05-10T06:09:59;6.40;;;4.50;;
15876;SDS011;8037;51.666;7.834;2023-05-10T06:12:25;8.20;;;6.00;;
15876;SDS011;8037;51.666;7.834;2023-05-10T06:14:51;8.13;;;5.90;;
15876;SDS011;8037;51.666;7.834;2023-05-10T06:17:17;12.80;;;6.83;;
15876;SDS011;8037;51.666;7.834;2023-05-10T06:19:43;7.13;;;6.10;;
15876;SDS011;8037;51.666;7.834;2023-05-10T06:22:09;11.70;;;7.00;;
15876;SDS011;8037;51.666;7.834;2023-05-10T06:24:35;9.80;;;6.20;;
15876;SDS011;8037;51.666;7.834;2023-05-10T06:27:01;12.40;;;6.97;;
15876;SDS011;8037;51.666;7.834;2023-05-10T06:29:27;11.80;;;7.53;;
15876;SDS011;8037;51.666;7.834;2023-05-10T06:31:53;12.50;;;7.10;;
15876;SDS011;8037;51.666;7.834;2023-05-10T06:34:19;10.53;;;7.77;;
15876;SDS011;8037;51.666;7.834;2023-05-10T06:36:45;9.87;;;8.00;;
15876;SDS011;8037;51.666;7.834;2023-05-10T06:39:11;14.90;;;7.80;;
15876;SDS011;8037;51.666;7.834;2023-05-10T06:41:37;15.27;;;7.97;;
15876;SDS011;8037;51.666;7.834;2023-05-10T06:44:03;18.20;;;8.93;;
15876;SDS011;8037;51.666;7.834;2023-05-10T06:46:30;12.00;;;9.63;;
15876;SDS011;8037;51.666;7.834;2023-05-10T06:48:55;12.07;;;8.47;;
15876;SDS011;8037;51.666;7.834;2023-05-10T06:51:21;12.00;;;7.97;;
15876;SDS011;8037;51.666;7.834;2023-05-10T06:53:47;12.77;;;9.27;;
15876;SDS011;8037;51.666;7.834;2023-05-10T06:56:13;13.03;;;8.63;;
15876;SDS011;8037;51.666;7.834;2023-05-10T06:58:39;15.80;;;9.00;;
15876;SDS011;8037;51.666;7.834;2023-05-10T07:01:05;18.73;;;11.07;;
15876;SDS011;8037;51.666;7.834;2023-05-10T07:03:31;15.57;;;9.50;;
15876;SDS011;8037;51.666;7.834;2023-05-10T07:06:01;15.57;;;10.73;;
15876;SDS011;8037;51.666;7.834;2023-05-10T07:08:28;22.47;;;13.87;;
15876;SDS011;8037;51.666;7.834;2023-05-10T07:10:58;18.33;;;11.50;;
15876;SDS011;8037;51.666;7.834;2023-05-10T07:13:25;15.97;;;11.40;;
15876;SDS011;8037;51.666;7.834;2023-05-10T07:15:50;21.53;;;12.23;;
15876;SDS011;8037;51.666;7.834;2023-05-10T07:18:16;19.47;;;13.00;;
15876;SDS011;8037;51.666;7.834;2023-05-10T07:20:42;21.57;;;11.73;;
15876;SDS011;8037;51.666;7.834;2023-05-10T07:23:08;19.90;;;11.10;;
15876;SDS011;8037;51.666;7.834;2023-05-10T07:25:34;16.77;;;12.60;;
15876;SDS011;8037;51.666;7.834;2023-05-10T07:27:59;21.70;;;12.57;;
15876;SDS011;8037;51.666;7.834;2023-05-10T07:30:25;24.10;;;16.53;;
15876;SDS011;8037;51.666;7.834;2023-05-10T07:32:52;18.97;;;12.90;;
15876;SDS011;8037;51.666;7.834;2023-05-10T07:35:18;19.30;;;12.80;;
15876;SDS011;8037;51.666;7.834;2023-05-10T07:37:44;39.73;;;14.47;;
15876;SDS011;8037;51.666;7.834;2023-05-10T07:40:10;18.40;;;12.83;;
15876;SDS011;8037;51.666;7.834;2023-05-10T07:42:36;19.30;;;11.57;;
15876;SDS011;8037;51.666;7.834;2023-05-10T07:45:03;19.83;;;13.10;;
15876;SDS011;8037;51.666;7.834;2023-05-10T07:47:29;18.90;;;13.20;;
15876;SDS011;8037;51.666;7.834;2023-05-10T07:49:55;18.77;;;12.83;;
15876;SDS011;8037;51.666;7.834;2023-05-10T07:52:20;20.50;;;13.43;;
15876;SDS011;8037;51.666;7.834;2023-05-10T07:54:46;19.40;;;12.00;;
15876;SDS011;8037;51.666;7.834;2023-05-10T07:57:12;24.10;;;13.43;;
15876;SDS011;8037;51.666;7.834;2023-05-10T07:59:40;21.73;;;13.50;;
15876;SDS011;8037;51.666;7.834;2023-05-10T08:02:07;23.30;;;11.53;;
15876;SDS011;8037;51.666;7.834;2023-05-10T08:04:33;32.73;;;14.93;;
15876;SDS011;8037;51.666;7.834;2023-05-10T08:06:58;25.83;;;13.80;;
15876;SDS011;8037;51.666;7.834;2023-05-10T08:09:24;17.33;;;12.63;;
15876;SDS011;8037;51.666;7.834;2023-05-10T08:11:50;22.37;;;13.77;;
15876;SDS011;8037;51.666;7.834;2023-05-10T08:14:16;15.20;;;12.00;;
15876;SDS011;8037;51.666;7.834;2023-05-10T08:16:43;24.33;;;12.50;;
15876;SDS011;8037;51.666;7.834;2023-05-10T08:19:09;18.20;;;10.47;;
15876;SDS011;8037;51.666;7.834;2023-05-10T08:21:34;20.40;;;11.90;;
15876;SDS011;8037;51.666;7.834;2023-05-10T08:24:01;14.80;;;11.50;;
15876;SDS011;8037;51.666;7.834;2023-05-10T08:26:27;15.00;;;11.33;;
15876;SDS011;8037;51.666;7.834;2023-05-10T08:28:53;15.23;;;11.97;;
15876;SDS011;8037;51.666;7.834;2023-05-10T08:31:18;17.33;;;11.87;;
15876;SDS011;8037;51.666;7.834;2023-05-10T08:33:44;15.17;;;11.90;;
15876;SDS011;8037;51.666;7.834;2023-05-10T08:36:11;17.87;;;12.50;;
15876;SDS011;8037;51.666;7.834;2023-05-10T08:38:39;19.97;;;15.47;;
15876;SDS011;8037;51.666;7.834;2023-05-10T08:41:05;25.03;;;15.80;;
15876;SDS011;8037;51.666;7.834;2023-05-10T08:43:31;23.30;;;15.17;;
15876;SDS011;8037;51.666;7.834;2023-05-10T08:45:59;29.53;;;17.50;;
15876;SDS011;8037;51.666;7.834;2023-05-10T08:48:27;22.27;;;16.30;;
15876;SDS011;8037;51.666;7.834;2023-05-10T08:50:54;21.10;;;15.27;;
15876;SDS011;8037;51.666;7.834;2023-05-10T08:53:23;21.30;;;14.77;;
15876;SDS011;8037;51.666;7.834;2023-05-10T08:55:51;19.67;;;14.27;;
15876;SDS011;8037;51.666;7.834;2023-05-10T08:58:17;23.37;;;16.33;;
15876;SDS011;8037;51.666;7.834;2023-05-10T09:00:45;22.10;;;14.00;;
15876;SDS011;8037;51.666;7.834;2023-05-10T09:03:11;21.70;;;13.57;;
15876;SDS011;8037;51.666;7.834;2023-05-10T09:05:37;17.33;;;12.57;;
15876;SDS011;8037;51.666;7.834;2023-05-10T09:08:03;23.23;;;15.50;;
15876;SDS011;8037;51.666;7.834;2023-05-10T09:10:30;20.40;;;14.83;;
15876;SDS011;8037;51.666;7.834;2023-05-10T09:12:56;20.47;;;13.87;;
15876;SDS011;8037;51.666;7.834;2023-05-10T09:15:22;17.27;;;13.73;;
15876;SDS011;8037;51.666;7.834;2023-05-10T09:17:49;25.57;;;16.67;;
15876;SDS011;8037;51.666;7.834;2023-05-10T09:20:15;26.30;;;16.63;;
15876;SDS011;8037;51.666;7.834;2023-05-10T09:22:42;18.10;;;14.47;;
15876;SDS011;8037;51.666;7.834;2023-05-10T09:25:09;20.60;;;14.63;;
15876;SDS011;8037;51.666;7.834;2023-05-10T09:27:39;17.87;;;12.93;;
15876;SDS011;8037;51.666;7.834;2023-05-10T09:30:05;19.77;;;14.27;;
15876;SDS011;8037;51.666;7.834;2023-05-10T09:35:10;19.83;;;13.83;;
15876;SDS011;8037;51.666;7.834;2023-05-10T09:37:38;17.93;;;12.87;;
15876;SDS011;8037;51.666;7.834;2023-05-10T09:40:06;20.20;;;14.53;;
15876;SDS011;8037;51.666;7.834;2023-05-10T09:42:34;26.57;;;14.10;;
15876;SDS011;8037;51.666;7.834;2023-05-10T09:45:01;17.13;;;13.20;;
15876;SDS011;8037;51.666;7.834;2023-05-10T09:47:27;25.63;;;14.77;;
15876;SDS011;8037;51.666;7.834;2023-05-10T09:49:53;23.20;;;13.67;;
15876;SDS011;8037;51.666;7.834;2023-05-10T09:52:22;19.97;;;12.83;;
15876;SDS011;8037;51.666;7.834;2023-05-10T09:54:54;19.20;;;13.20;;
15876;SDS011;8037;51.666;7.834;2023-05-10T09:57:21;32.23;;;14.30;;
15876;SDS011;8037;51.666;7.834;2023-05-10T09:59:47;17.63;;;13.23;;
15876;SDS011;8037;51.666;7.834;2023-05-10T10:02:14;18.30;;;12.93;;
15876;SDS011;8037;51.666;7.834;2023-05-10T10:04:40;26.00;;;14.17;;
15876;SDS011;8037;51.666;7.834;2023-05-10T10:07:06;25.40;;;13.93;;
15876;SDS011;8037;51.666;7.834;2023-05-10T10:09:33;20.13;;;14.67;;
15876;SDS011;8037;51.666;7.834;2023-05-10T10:12:02;17.90;;;12.97;;
15876;SDS011;8037;51.666;7.834;2023-05-10T10:14:29;21.03;;;13.07;;
15876;SDS011;8037;51.666;7.834;2023-05-10T10:16:55;27.40;;;14.43;;
15876;SDS011;8037;51.666;7.834;2023-05-10T10:19:21;16.27;;;12.03;;
15876;SDS011;8037;51.666;7.834;2023-05-10T10:21:48;23.90;;;14.23;;
15876;SDS011;8037;51.666;7.834;2023-05-10T10:24:15;23.87;;;13.67;;
15876;SDS011;8037;51.666;7.834;2023-05-10T10:26:41;34.23;;;14.60;;
15876;SDS011;8037;51.666;7.834;2023-05-10T10:32:03;19.90;;;14.10;;
15876;SDS011;8037;51.666;7.834;2023-05-10T10:34:33;28.00;;;15.50;;
15876;SDS011;8037;51.666;7.834;2023-05-10T10:37:03;19.77;;;14.73;;
15876;SDS011;8037;51.666;7.834;2023-05-10T10:39:30;19.83;;;13.77;;
15876;SDS011;8037;51.666;7.834;2023-05-10T10:41:56;21.13;;;14.60;;
15876;SDS011;8037;51.666;7.834;2023-05-10T10:46:58;24.20;;;16.07;;
15876;SDS011;8037;51.666;7.834;2023-05-10T10:49:25;28.70;;;16.00;;
15876;SDS011;8037;51.666;7.834;2023-05-10T10:54:36;23.30;;;17.40;;
15876;SDS011;8037;51.666;7.834;2023-05-10T10:57:20;22.83;;;15.77;;
15876;SDS011;8037;51.666;7.834;2023-05-10T10:59:46;27.40;;;15.97;;
15876;SDS011;8037;51.666;7.834;2023-05-10T11:04:57;21.30;;;12.87;;
15876;SDS011;8037;51.666;7.834;2023-05-10T11:07:24;29.63;;;13.37;;
15876;SDS011;8037;51.666;7.834;2023-05-10T11:09:50;18.33;;;11.87;;
15876;SDS011;8037;51.666;7.834;2023-05-10T11:12:16;16.97;;;11.90;;
15876;SDS011;8037;51.666;7.834;2023-05-10T11:14:42;18.97;;;10.03;;
15876;SDS011;8037;51.666;7.834;2023-05-10T11:17:27;25.97;;;11.00;;
15876;SDS011;8037;51.666;7.834;2023-05-10T11:20:07;12.53;;;9.50;;
15876;SDS011;8037;51.666;7.834;2023-05-10T11:22:57;14.67;;;9.37;;
15876;SDS011;8037;51.666;7.834;2023-05-10T11:25:27;13.10;;;8.67;;
15876;SDS011;8037;51.666;7.834;2023-05-10T11:27:53;15.83;;;9.87;;
15876;SDS011;8037;51.666;7.834;2023-05-10T11:30:19;13.30;;;8.17;;
15876;SDS011;8037;51.666;7.834;2023-05-10T11:32:45;11.13;;;7.93;;
15876;SDS011;8037;51.666;7.834;2023-05-10T11:35:12;15.23;;;8.30;;
15876;SDS011;8037;51.666;7.834;2023-05-10T11:37:41;12.70;;;7.23;;
15876;SDS011;8037;51.666;7.834;2023-05-10T11:40:09;10.20;;;7.60;;
15876;SDS011;8037;51.666;7.834;2023-05-10T11:42:36;12.43;;;6.90;;
15876;SDS011;8037;51.666;7.834;2023-05-10T11:45:03;8.10;;;5.87;;
15876;SDS011;8037;51.666;7.834;2023-05-10T11:47:29;8.33;;;5.97;;
15876;SDS011;8037;51.666;7.834;2023-05-10T11:49:55;8.70;;;6.77;;
15876;SDS011;8037;51.666;7.834;2023-05-10T11:52:21;7.47;;;6.43;;
15876;SDS011;8037;51.666;7.834;2023-05-10T11:54:53;10.97;;;7.03;;
15876;SDS011;8037;51.666;7.834;2023-05-10T11:57:19;12.83;;;9.67;;
15876;SDS011;8037;51.666;7.834;2023-05-10T11:59:46;14.40;;;8.83;;
15876;SDS011;8037;51.666;7.834;2023-05-10T12:02:15;16.23;;;10.90;;
15876;SDS011;8037;51.666;7.834;2023-05-10T12:04:41;17.50;;;9.70;;
15876;SDS011;8037;51.666;7.834;2023-05-10T12:07:07;22.53;;;11.00;;
15876;SDS011;8037;51.666;7.834;2023-05-10T12:09:33;17.73;;;11.07;;
15876;SDS011;8037;51.666;7.834;2023-05-10T12:11:59;24.50;;;10.37;;
15876;SDS011;8037;51.666;7.834;2023-05-10T12:14:25;14.50;;;10.03;;
15876;SDS011;8037;51.666;7.834;2023-05-10T12:16:51;18.90;;;11.00;;
15876;SDS011;8037;51.666;7.834;2023-05-10T12:19:18;13.17;;;10.40;;
15876;SDS011;8037;51.666;7.834;2023-05-10T12:21:47;19.43;;;11.27;;
15876;SDS011;8037;51.666;7.834;2023-05-10T12:24:13;21.80;;;11.23;;
15876;SDS011;8037;51.666;7.834;2023-05-10T12:26:42;16.83;;;11.13;;
15876;SDS011;8037;51.666;7.834;2023-05-10T12:29:12;19.53;;;11.87;;
15876;SDS011;8037;51.666;7.834;2023-05-10T12:31:58;19.00;;;12.70;;
15876;SDS011;8037;51.666;7.834;2023-05-10T12:34:25;20.40;;;11.90;;
15876;SDS011;8037;51.666;7.834;2023-05-10T12:36:54;15.93;;;10.40;;
15876;SDS011;8037;51.666;7.834;2023-05-10T12:39:20;20.60;;;14.10;;
15876;SDS011;8037;51.666;7.834;2023-05-10T12:41:46;26.30;;;11.40;;
15876;SDS011;8037;51.666;7.834;2023-05-10T12:44:12;17.43;;;11.33;;
15876;SDS011;8037;51.666;7.834;2023-05-10T12:46:38;18.20;;;11.67;;
15876;SDS011;8037;51.666;7.834;2023-05-10T12:49:03;27.53;;;11.40;;
15876;SDS011;8037;51.666;7.834;2023-05-10T12:51:29;14.97;;;12.37;;
15876;SDS011;8037;51.666;7.834;2023-05-10T12:53:56;13.30;;;11.27;;
15876;SDS011;8037;51.666;7.834;2023-05-10T12:56:22;16.43;;;11.20;;
15876;SDS011;8037;51.666;7.834;2023-05-10T12:58:48;21.10;;;13.90;;
15876;SDS011;8037;51.666;7.834;2023-05-10T13:01:14;22.63;;;13.97;;
15876;SDS011;8037;51.666;7.834;2023-05-10T13:03:40;16.77;;;13.70;;
15876;SDS011;8037;51.666;7.834;2023-05-10T13:06:06;16.13;;;13.07;;
15876;SDS011;8037;51.666;7.834;2023-05-10T13:08:32;19.77;;;12.87;;
15876;SDS011;8037;51.666;7.834;2023-05-10T13:11:01;21.93;;;15.33;;
15876;SDS011;8037;51.666;7.834;2023-05-10T13:13:27;19.60;;;14.07;;
15876;SDS011;8037;51.666;7.834;2023-05-10T13:15:53;22.07;;;14.40;;
15876;SDS011;8037;51.666;7.834;2023-05-10T13:18:19;24.50;;;14.67;;
15876;SDS011;8037;51.666;7.834;2023-05-10T13:20:45;20.10;;;14.27;;
15876;SDS011;8037;51.666;7.834;2023-05-10T13:23:11;19.20;;;14.20;;
15876;SDS011;8037;51.666;7.834;2023-05-10T13:25:37;20.43;;;14.87;;
15876;SDS011;8037;51.666;7.834;2023-05-10T13:28:03;26.20;;;16.00;;
15876;SDS011;8037;51.666;7.834;2023-05-10T13:30:29;24.33;;;14.20;;
15876;SDS011;8037;51.666;7.834;2023-05-10T13:32:55;28.10;;;13.10;;
15876;SDS011;8037;51.666;7.834;2023-05-10T13:35:21;24.30;;;13.37;;
15876;SDS011;8037;51.666;7.834;2023-05-10T13:37:47;18.37;;;12.13;;
15876;SDS011;8037;51.666;7.834;2023-05-10T13:40:13;15.23;;;11.40;;
15876;SDS011;8037;51.666;7.834;2023-05-10T13:42:40;13.30;;;9.33;;
15876;SDS011;8037;51.666;7.834;2023-05-10T13:45:06;20.10;;;10.30;;
15876;SDS011;8037;51.666;7.834;2023-05-10T13:47:32;19.93;;;10.03;;
15876;SDS011;8037;51.666;7.834;2023-05-10T13:49:58;15.63;;;10.30;;
15876;SDS011;8037;51.666;7.834;2023-05-10T13:52:25;10.13;;;8.60;;
15876;SDS011;8037;51.666;7.834;2023-05-10T13:54:51;15.80;;;10.60;;
15876;SDS011;8037;51.666;7.834;2023-05-10T13:57:19;14.63;;;9.00;;
15876;SDS011;8037;51.666;7.834;2023-05-10T13:59:45;12.30;;;8.37;;
15876;SDS011;8037;51.666;7.834;2023-05-10T14:02:12;17.23;;;6.73;;
15876;SDS011;8037;51.666;7.834;2023-05-10T14:04:38;8.30;;;6.77;;
15876;SDS011;8037;51.666;7.834;2023-05-10T14:07:03;10.33;;;6.60;;
15876;SDS011;8037;51.666;7.834;2023-05-10T14:09:30;7.20;;;5.27;;
15876;SDS011;8037;51.666;7.834;2023-05-10T14:11:56;6.13;;;5.27;;
15876;SDS011;8037;51.666;7.834;2023-05-10T14:14:22;6.73;;;6.20;;
15876;SDS011;8037;51.666;7.834;2023-05-10T14:16:48;11.47;;;8.67;;
15876;SDS011;8037;51.666;7.834;2023-05-10T14:19:14;6.50;;;5.80;;
15876;SDS011;8037;51.666;7.834;2023-05-10T14:21:40;8.43;;;7.13;;
15876;SDS011;8037;51.666;7.834;2023-05-10T14:24:06;9.90;;;6.60;;
15876;SDS011;8037;51.666;7.834;2023-05-10T14:26:32;11.80;;;6.40;;
15876;SDS011;8037;51.666;7.834;2023-05-10T14:28:59;8.00;;;6.00;;
15876;SDS011;8037;51.666;7.834;2023-05-10T14:31:25;8.50;;;5.70;;
15876;SDS011;8037;51.666;7.834;2023-05-10T14:33:51;5.83;;;5.40;;
15876;SDS011;8037;51.666;7.834;2023-05-10T14:36:17;10.10;;;5.67;;
15876;SDS011;8037;51.666;7.834;2023-05-10T14:38:43;9.70;;;5.47;;
15876;SDS011;8037;51.666;7.834;2023-05-10T14:41:09;7.50;;;5.40;;
15876;SDS011;8037;51.666;7.834;2023-05-10T14:43:39;7.13;;;5.17;;
15876;SDS011;8037;51.666;7.834;2023-05-10T14:46:05;10.03;;;5.93;;
15876;SDS011;8037;51.666;7.834;2023-05-10T14:48:30;3.77;;;3.40;;
15876;SDS011;8037;51.666;7.834;2023-05-10T14:50:56;4.90;;;4.43;;
15876;SDS011;8037;51.666;7.834;2023-05-10T14:53:22;8.00;;;4.90;;
15876;SDS011;8037;51.666;7.834;2023-05-10T14:55:48;6.30;;;5.50;;
15876;SDS011;8037;51.666;7.834;2023-05-10T14:58:14;6.10;;;5.50;;
15876;SDS011;8037;51.666;7.834;2023-05-10T15:00:40;7.23;;;6.53;;
15876;SDS011;8037;51.666;7.834;2023-05-10T15:03:06;6.23;;;5.60;;
15876;SDS011;8037;51.666;7.834;2023-05-10T15:05:32;15.10;;;7.97;;
15876;SDS011;8037;51.666;7.834;2023-05-10T15:07:58;11.13;;;8.67;;
15876;SDS011;8037;51.666;7.834;2023-05-10T15:10:24;11.97;;;8.40;;
15876;SDS011;8037;51.666;7.834;2023-05-10T15:12:50;9.90;;;8.70;;
15876;SDS011;8037;51.666;7.834;2023-05-10T15:15:16;14.20;;;8.57;;